Time;durP1;ratioP1;P1;durP2;ratioP2;P2;SDS_P1;SDS_P2;PMS_P1;PMS_P2;Temp;Humidity;BMP_temperature;BMP_pressure;BME280_temperature;BME280_humidity;BME280_pressure;Samples;Min_cycle;Max_cycle;Signal;HPM_P1;HPM_P2
2023/10/27 00:02:21;;;;;;;50.25;29.52;;;;;;;9.35;100.00;99007.78;5006276;28;20032;-62
2023/10/27 00:04:46;;;;;;;47.38;28.52;;;;;;;9.35;100.00;99014.69;4993768;28;20044;-61
2023/10/27 00:07:12;;;;;;;51.40;29.58;;;;;;;9.34;100.00;99018.97;4997156;28;20076;-62
2023/10/27 00:09:37;;;;;;;48.15;28.50;;;;;;;9.35;100.00;99012.94;4990384;28;20364;-62
2023/10/27 00:12:04;;;;;;;46.13;28.05;;;;;;;9.36;100.00;99013.81;4989182;28;20030;-61
2023/10/27 00:14:29;;;;;;;44.85;28.85;;;;;;;9.36;100.00;99014.69;5011458;28;20025;-62
2023/10/27 00:16:54;;;;;;;45.60;29.33;;;;;;;9.36;100.00;99012.09;5004897;28;20085;-62
2023/10/27 00:19:19;;;;;;;49.83;29.90;;;;;;;9.36;100.00;99006.94;5006883;28;20437;-63
2023/10/27 00:21:45;;;;;;;52.78;29.67;;;;;;;9.37;100.00;99002.63;5009336;28;20284;-62
2023/10/27 00:24:10;;;;;;;47.97;27.88;;;;;;;9.34;100.00;99003.47;5007721;28;20029;-63
2023/10/27 00:26:36;;;;;;;47.35;27.92;;;;;;;9.35;100.00;99005.19;4997235;28;20033;-62
2023/10/27 00:29:02;;;;;;;47.75;28.48;;;;;;;9.36;100.00;99000.88;5006084;28;20025;-61
2023/10/27 00:31:27;;;;;;;50.15;29.10;;;;;;;9.36;100.00;98999.19;5007415;28;20030;-61
2023/10/27 00:33:52;;;;;;;44.30;28.02;;;;;;;9.37;100.00;99002.63;5008034;28;20046;-62
2023/10/27 00:36:17;;;;;;;46.10;27.02;;;;;;;9.37;100.00;98993.16;5007786;28;20367;-61
2023/10/27 00:38:46;;;;;;;45.55;28.30;;;;;;;9.36;100.00;98991.44;5007889;28;20017;-62
2023/10/27 00:41:12;;;;;;;47.40;28.50;;;;;;;9.36;100.00;98996.59;5000943;28;20022;-62
2023/10/27 00:43:37;;;;;;;46.22;27.92;;;;;;;9.37;100.00;98993.16;5003202;28;20046;-63
2023/10/27 00:46:02;;;;;;;42.50;27.13;;;;;;;9.37;100.00;98987.97;5011854;28;20445;-61
2023/10/27 00:48:28;;;;;;;40.90;25.42;;;;;;;9.37;100.00;98985.38;5003770;28;20034;-62
2023/10/27 00:50:54;;;;;;;46.22;25.95;;;;;;;9.37;100.00;98985.38;4999797;28;20022;-62
2023/10/27 00:53:23;;;;;;;43.40;27.10;;;;;;;9.36;100.00;98990.56;5008619;28;20032;-62
2023/10/27 00:55:51;;;;;;;39.92;26.35;;;;;;;9.35;100.00;98989.69;5012983;28;20111;-62
2023/10/27 00:58:19;;;;;;;42.90;26.15;;;;;;;9.36;100.00;98988.84;5018139;28;20021;-62
2023/10/27 01:00:45;;;;;;;45.53;27.17;;;;;;;9.37;100.00;98984.53;5009335;28;20029;-63
2023/10/27 01:03:10;;;;;;;41.17;26.67;;;;;;;9.33;100.00;98986.25;5009094;28;20076;-62
2023/10/27 01:05:36;;;;;;;42.70;26.25;;;;;;;9.33;100.00;98981.06;4998648;28;20042;-61
2023/10/27 01:08:02;;;;;;;47.55;27.42;;;;;;;9.34;100.00;98982.78;4994801;28;20026;-63
2023/10/27 01:10:27;;;;;;;41.70;26.50;;;;;;;9.34;100.00;98980.22;5012854;28;20068;-62
2023/10/27 01:12:52;;;;;;;44.55;26.98;;;;;;;9.34;100.00;98982.78;5012511;28;20489;-62
2023/10/27 01:15:18;;;;;;;45.75;27.85;;;;;;;9.35;100.00;98978.50;5019113;28;20462;-63
2023/10/27 01:17:44;;;;;;;46.38;26.65;;;;;;;9.36;100.00;98977.63;4998676;28;20082;-62
2023/10/27 01:20:10;;;;;;;39.83;26.13;;;;;;;9.36;100.00;98975.03;4998290;28;20363;-62
2023/10/27 01:22:44;;;;;;;38.78;26.67;;;;;;;9.36;100.00;98977.63;4998767;28;20092;-62
2023/10/27 01:25:10;;;;;;;40.13;25.33;;;;;;;9.36;100.00;98975.91;5008037;28;20037;-62
2023/10/27 01:27:35;;;;;;;43.97;26.10;;;;;;;9.37;100.00;98977.63;5019932;28;20022;-62
2023/10/27 01:30:00;;;;;;;42.90;27.15;;;;;;;9.36;100.00;98975.91;5008428;28;20401;-61
2023/10/27 01:32:26;;;;;;;41.28;26.38;;;;;;;9.39;100.00;98979.38;5007046;28;20053;-62
2023/10/27 01:34:51;;;;;;;38.70;26.52;;;;;;;9.37;100.00;98977.63;5007566;28;20124;-62
2023/10/27 01:37:16;;;;;;;46.95;26.48;;;;;;;9.36;100.00;98975.91;5007361;28;20498;-61
2023/10/27 01:39:45;;;;;;;40.90;26.50;;;;;;;9.35;100.00;98969.00;5008132;28;20052;-62
2023/10/27 01:42:11;;;;;;;37.60;24.58;;;;;;;9.37;100.00;98972.47;5004735;28;20054;-63
2023/10/27 01:44:36;;;;;;;40.97;26.33;;;;;;;9.37;100.00;98972.47;5000099;28;20043;-62
2023/10/27 01:47:01;;;;;;;41.17;25.48;;;;;;;9.37;100.00;98962.13;5009890;28;20549;-62
2023/10/27 01:49:27;;;;;;;42.65;26.27;;;;;;;9.38;100.00;98973.34;5003828;28;20076;-63
2023/10/27 01:51:52;;;;;;;40.40;24.40;;;;;;;9.39;100.00;98961.28;5001220;28;20069;-62
2023/10/27 01:54:17;;;;;;;42.03;24.40;;;;;;;9.38;100.00;98965.59;5007366;28;20033;-61
2023/10/27 01:56:42;;;;;;;40.78;25.02;;;;;;;9.37;100.00;98962.13;4995778;28;20034;-62
2023/10/27 01:59:08;;;;;;;39.78;25.58;;;;;;;9.39;100.00;98963.88;5010139;28;20042;-63
2023/10/27 02:01:33;;;;;;;37.78;23.92;;;;;;;9.37;100.00;98956.94;5007575;28;20076;-62
2023/10/27 02:03:58;;;;;;;40.40;24.20;;;;;;;9.37;100.00;98962.13;5006730;28;20022;-62
2023/10/27 02:06:25;;;;;;;38.38;24.65;;;;;;;9.37;100.00;98959.53;5007156;28;20457;-63
2023/10/27 02:08:51;;;;;;;33.70;23.08;;;;;;;9.33;100.00;98950.06;5006679;28;20081;-62
2023/10/27 02:11:16;;;;;;;35.10;22.10;;;;;;;9.34;100.00;98953.47;5008047;28;20029;-61
2023/10/27 02:13:41;;;;;;;37.35;22.55;;;;;;;9.33;100.00;98955.22;5006357;28;20018;-62
2023/10/27 02:16:08;;;;;;;35.20;22.08;;;;;;;9.33;100.00;98944.00;5009634;28;20030;-62
2023/10/27 02:18:33;;;;;;;34.58;21.33;;;;;;;9.32;100.00;98943.13;5007413;28;20022;-62
2023/10/27 02:20:58;;;;;;;33.95;21.88;;;;;;;9.32;100.00;98937.09;5009796;28;20017;-63
2023/10/27 02:23:25;;;;;;;32.92;20.77;;;;;;;9.32;100.00;98947.44;5030969;28;20033;-62
2023/10/27 02:25:51;;;;;;;35.10;21.13;;;;;;;9.31;100.00;98940.53;5007026;28;20026;-61
2023/10/27 02:28:16;;;;;;;28.70;20.58;;;;;;;9.31;100.00;98937.97;5001877;28;20026;-61
2023/10/27 02:30:42;;;;;;;36.20;20.27;;;;;;;9.30;100.00;98933.66;4999037;28;20045;-62
2023/10/27 02:33:07;;;;;;;31.80;20.35;;;;;;;9.29;100.00;98934.50;5000423;28;20049;-63
2023/10/27 02:35:32;;;;;;;30.55;18.23;;;;;;;9.30;100.00;98931.91;4993897;28;20022;-62
2023/10/27 02:37:57;;;;;;;29.95;19.70;;;;;;;9.30;100.00;98933.66;5009785;28;20025;-62
2023/10/27 02:40:23;;;;;;;30.35;17.85;;;;;;;9.28;100.00;98931.06;5017425;28;20084;-62
2023/10/27 02:42:48;;;;;;;30.08;18.13;;;;;;;9.28;100.00;98932.78;4992403;28;20423;-62
2023/10/27 02:45:14;;;;;;;31.08;18.02;;;;;;;9.28;100.00;98931.06;5013797;28;20071;-62
2023/10/27 02:47:40;;;;;;;31.70;18.73;;;;;;;9.27;100.00;98929.31;5029801;28;20029;-61
2023/10/27 02:50:05;;;;;;;30.35;18.33;;;;;;;9.27;100.00;98929.31;5020976;28;20025;-63
2023/10/27 02:52:31;;;;;;;30.88;19.17;;;;;;;9.26;100.00;98922.44;5018263;28;20026;-62
2023/10/27 02:54:56;;;;;;;29.63;18.75;;;;;;;9.27;100.00;98923.28;5001316;28;20470;-61
2023/10/27 02:57:21;;;;;;;28.38;18.08;;;;;;;9.27;100.00;98923.28;5029997;28;20020;-62
2023/10/27 02:59:46;;;;;;;28.02;17.48;;;;;;;9.26;100.00;98917.25;5006194;28;20101;-63
2023/10/27 03:02:12;;;;;;;28.08;18.30;;;;;;;9.25;100.00;98913.81;5014555;28;20017;-64
2023/10/27 03:04:37;;;;;;;28.70;17.83;;;;;;;9.27;100.00;98918.09;5003312;28;20035;-62
2023/10/27 03:07:03;;;;;;;29.55;17.25;;;;;;;9.25;100.00;98918.09;5029732;28;20026;-61
2023/10/27 03:09:28;;;;;;;29.50;16.70;;;;;;;9.25;100.00;98913.81;5010174;28;20079;-62
2023/10/27 03:11:53;;;;;;;25.25;16.25;;;;;;;9.23;100.00;98906.88;5010316;28;20053;-61
2023/10/27 03:14:19;;;;;;;30.13;17.70;;;;;;;9.21;100.00;98909.47;4992958;28;20030;-62
2023/10/27 03:16:44;;;;;;;25.38;17.23;;;;;;;9.23;100.00;98909.47;4991820;28;20030;-62
2023/10/27 03:19:09;;;;;;;21.60;15.85;;;;;;;9.23;100.00;98907.75;4996350;28;20025;-62
2023/10/27 03:21:35;;;;;;;34.28;17.38;;;;;;;9.22;100.00;98911.22;5021639;28;20119;-62
2023/10/27 03:24:00;;;;;;;26.25;15.32;;;;;;;9.23;100.00;98914.63;5025235;28;20017;-62
2023/10/27 03:26:26;;;;;;;27.20;15.77;;;;;;;9.20;100.00;98918.06;5018676;28;20470;-63
2023/10/27 03:28:51;;;;;;;27.88;17.40;;;;;;;9.20;100.00;98906.88;5022042;28;20129;-61
2023/10/27 03:31:17;;;;;;;25.25;15.40;;;;;;;9.18;100.00;98909.44;4990443;28;20026;-61
2023/10/27 03:33:43;;;;;;;23.30;16.63;;;;;;;9.19;100.00;98912.91;4990443;28;20029;-62
2023/10/27 03:36:09;;;;;;;27.73;15.40;;;;;;;9.20;100.00;98901.69;5009398;28;20030;-62
2023/10/27 03:38:34;;;;;;;24.13;15.07;;;;;;;9.21;100.00;98906.03;4999988;28;20030;-62
2023/10/27 03:40:59;;;;;;;24.27;14.27;;;;;;;9.21;100.00;98908.63;5006889;28;20580;-62
2023/10/27 03:43:24;;;;;;;25.40;15.55;;;;;;;9.22;100.00;98905.16;5007622;28;20128;-62
2023/10/27 03:45:50;;;;;;;24.17;14.93;;;;;;;9.22;100.00;98900.00;5009379;28;20056;-62
2023/10/27 03:48:15;;;;;;;23.70;15.45;;;;;;;9.20;100.00;98904.28;5009021;28;20026;-62
2023/10/27 03:50:40;;;;;;;19.67;14.82;;;;;;;9.20;100.00;98904.28;4995791;28;20026;-61
2023/10/27 03:53:06;;;;;;;25.75;14.98;;;;;;;9.19;100.00;98906.00;5001665;28;20021;-62
2023/10/27 03:55:31;;;;;;;21.77;14.07;;;;;;;9.19;100.00;98905.16;5009161;28;20389;-62
2023/10/27 03:58:15;;;;;;;23.50;15.13;;;;;;;9.19;100.00;98903.41;4996789;28;20027;-61
2023/10/27 04:00:40;;;;;;;21.20;14.88;;;;;;;9.19;100.00;98905.16;4989397;28;20033;-61
2023/10/27 04:03:05;;;;;;;25.20;14.40;;;;;;;9.18;100.00;98898.22;4992533;28;20022;-62
2023/10/27 04:05:30;;;;;;;23.20;13.77;;;;;;;9.17;100.00;98899.09;5009817;28;20057;-61
2023/10/27 04:07:56;;;;;;;20.50;13.75;;;;;;;9.16;100.00;98895.66;4998331;28;20027;-61
2023/10/27 04:10:21;;;;;;;22.77;14.27;;;;;;;9.18;100.00;98898.22;5019453;28;20025;-62
2023/10/27 04:12:47;;;;;;;24.23;15.07;;;;;;;9.17;100.00;98896.53;5018925;28;20036;-62
2023/10/27 04:15:12;;;;;;;22.35;13.27;;;;;;;9.17;100.00;98896.53;5008155;28;20076;-62
2023/10/27 04:17:38;;;;;;;22.38;13.55;;;;;;;9.18;100.00;98900.81;5011953;28;20146;-63
2023/10/27 04:20:04;;;;;;;21.65;13.45;;;;;;;9.17;100.00;98896.53;5008604;28;20045;-62
2023/10/27 04:22:30;;;;;;;21.88;13.63;;;;;;;9.16;100.00;98899.94;5009319;28;20387;-62
2023/10/27 04:24:57;;;;;;;20.80;13.73;;;;;;;9.13;100.00;98901.69;5009375;28;20022;-62
2023/10/27 04:27:22;;;;;;;22.60;13.68;;;;;;;9.15;100.00;98900.81;5009759;28;20049;-62
2023/10/27 04:29:47;;;;;;;21.80;12.73;;;;;;;9.13;100.00;98896.50;5007613;28;20021;-62
2023/10/27 04:32:15;;;;;;;22.75;14.18;;;;;;;9.14;100.00;98902.50;5008697;28;20026;-62
2023/10/27 04:34:41;;;;;;;25.30;14.27;;;;;;;9.13;100.00;98900.81;5008208;28;20028;-62
2023/10/27 04:37:06;;;;;;;23.75;13.95;;;;;;;9.15;100.00;98905.97;5007057;28;20374;-61
2023/10/27 04:39:32;;;;;;;16.58;12.90;;;;;;;9.13;100.00;98901.69;5004287;28;20064;-62
2023/10/27 04:41:57;;;;;;;19.35;12.90;;;;;;;9.12;100.00;98899.94;5013534;28;20703;-61
2023/10/27 04:44:23;;;;;;;20.90;13.23;;;;;;;9.09;100.00;98899.91;4991660;28;20020;-61
2023/10/27 04:46:50;;;;;;;22.17;12.70;;;;;;;9.09;100.00;98905.09;5001803;28;20030;-62
2023/10/27 04:49:16;;;;;;;23.30;14.45;;;;;;;9.10;100.00;98898.19;5003916;28;20022;-62
2023/10/27 04:51:41;;;;;;;20.48;12.40;;;;;;;9.11;100.00;98905.97;5014506;28;20032;-63
2023/10/27 04:54:06;;;;;;;18.50;12.18;;;;;;;9.11;100.00;98898.22;5015125;28;20067;-67
2023/10/27 04:56:33;;;;;;;20.27;12.50;;;;;;;9.09;100.00;98899.91;5001048;28;20471;-66
2023/10/27 04:58:58;;;;;;;23.55;13.30;;;;;;;9.11;100.00;98898.22;5002938;28;20040;-66
2023/10/27 05:01:25;;;;;;;17.67;12.30;;;;;;;9.12;100.00;98896.50;5001024;28;20419;-66
2023/10/27 05:03:53;;;;;;;19.15;13.45;;;;;;;9.12;100.00;98897.34;5026167;28;20018;-66
2023/10/27 05:06:18;;;;;;;17.15;11.60;;;;;;;9.12;100.00;98888.75;5001018;28;20018;-66
2023/10/27 05:08:43;;;;;;;20.13;12.45;;;;;;;9.10;100.00;98891.28;5026537;28;20036;-66
2023/10/27 05:11:10;;;;;;;18.27;12.23;;;;;;;9.10;100.00;98890.44;5001376;28;20380;-64
2023/10/27 05:13:35;;;;;;;23.77;13.20;;;;;;;9.08;100.00;98885.28;5020093;28;20442;-66
2023/10/27 05:16:00;;;;;;;19.77;14.57;;;;;;;9.09;100.00;98884.41;5001352;28;20133;-66
2023/10/27 05:18:27;;;;;;;22.08;13.05;;;;;;;9.09;100.00;98886.13;4993081;28;20014;-66
2023/10/27 05:20:53;;;;;;;19.70;12.73;;;;;;;9.09;100.00;98884.41;4998421;28;20053;-66
2023/10/27 05:23:18;;;;;;;20.83;11.70;;;;;;;9.09;100.00;98883.53;5028271;28;20026;-66
2023/10/27 05:25:43;;;;;;;17.80;11.82;;;;;;;9.10;100.00;98875.78;4996869;28;20026;-65
2023/10/27 05:28:08;;;;;;;19.85;12.18;;;;;;;9.10;100.00;98875.78;4997095;28;20386;-66
2023/10/27 05:30:35;;;;;;;19.05;11.93;;;;;;;9.09;100.00;98881.81;5008265;28;20110;-66
2023/10/27 05:33:01;;;;;;;18.65;11.85;;;;;;;9.09;100.00;98868.91;5007233;28;20466;-66
2023/10/27 05:35:26;;;;;;;18.45;12.60;;;;;;;9.08;100.00;98867.19;5004769;28;20034;-66
2023/10/27 05:37:52;;;;;;;17.15;11.13;;;;;;;9.08;100.00;98869.78;5020335;28;20490;-66
2023/10/27 05:40:17;;;;;;;19.13;12.40;;;;;;;9.09;100.00;98874.06;5013120;28;20026;-66
2023/10/27 05:42:43;;;;;;;22.02;12.52;;;;;;;9.09;100.00;98871.50;5014037;28;20042;-65
2023/10/27 05:45:11;;;;;;;19.90;11.63;;;;;;;9.09;100.00;98874.06;5019696;28;20049;-66
2023/10/27 05:47:38;;;;;;;18.40;12.02;;;;;;;9.08;100.00;98872.34;5003254;28;20036;-65
2023/10/27 05:50:04;;;;;;;21.00;12.38;;;;;;;9.07;100.00;98875.78;5017142;28;20448;-66
2023/10/27 05:52:29;;;;;;;18.13;12.35;;;;;;;9.07;100.00;98873.19;5021620;28;20076;-66
2023/10/27 05:54:55;;;;;;;18.58;12.85;;;;;;;9.06;100.00;98871.47;5013424;28;20470;-66
2023/10/27 05:57:20;;;;;;;19.60;12.80;;;;;;;9.04;100.00;98870.59;5004473;28;20506;-66
2023/10/27 05:59:45;;;;;;;20.25;12.98;;;;;;;9.04;100.00;98880.94;5005602;28;20026;-66
2023/10/27 06:02:11;;;;;;;14.23;12.00;;;;;;;9.03;100.00;98874.03;5019562;28;20109;-65
2023/10/27 06:04:38;;;;;;;21.77;12.85;;;;;;;9.05;100.00;98881.81;5010662;28;20544;-65
2023/10/27 06:07:03;;;;;;;20.15;13.57;;;;;;;9.04;100.00;98870.59;5007464;28;20045;-67
2023/10/27 06:09:30;;;;;;;19.00;12.75;;;;;;;9.04;100.00;98868.00;5013493;28;20029;-66
2023/10/27 06:11:56;;;;;;;19.40;13.27;;;;;;;9.04;100.00;98872.31;5008434;28;20543;-66
2023/10/27 06:14:21;;;;;;;21.58;13.82;;;;;;;9.05;100.00;98871.47;5005704;28;20024;-65
2023/10/27 06:16:47;;;;;;;19.92;12.77;;;;;;;9.05;100.00;98877.47;5010233;28;20115;-67
2023/10/27 06:19:12;;;;;;;18.33;13.63;;;;;;;9.05;100.00;98868.88;5006916;28;20026;-65
2023/10/27 06:21:37;;;;;;;16.13;12.15;;;;;;;9.05;100.00;98882.66;5008465;28;20041;-66
2023/10/27 06:24:03;;;;;;;20.13;13.50;;;;;;;9.06;100.00;98881.81;5006498;28;20223;-66
2023/10/27 06:26:28;;;;;;;21.48;13.45;;;;;;;9.06;100.00;98879.22;5008525;28;20017;-65
2023/10/27 06:28:53;;;;;;;18.58;12.30;;;;;;;9.08;100.00;98887.00;5004123;28;20562;-65
2023/10/27 06:31:19;;;;;;;18.35;12.32;;;;;;;9.09;100.00;98883.53;4989532;28;20026;-66
2023/10/27 06:33:44;;;;;;;19.05;12.05;;;;;;;9.09;100.00;98884.41;4990066;28;20521;-66
2023/10/27 06:36:09;;;;;;;17.33;12.68;;;;;;;9.10;100.00;98885.28;5004885;28;20033;-66
2023/10/27 06:38:35;;;;;;;17.20;11.60;;;;;;;9.10;100.00;98886.13;5008008;28;20370;-66
2023/10/27 06:41:00;;;;;;;15.85;11.48;;;;;;;9.13;100.00;98890.47;5007826;28;20072;-66
2023/10/27 06:43:26;;;;;;;16.92;12.35;;;;;;;9.13;100.00;98888.75;5005042;28;20052;-66
2023/10/27 06:45:51;;;;;;;19.27;12.07;;;;;;;9.14;100.00;98897.34;5004191;28;20299;-66
2023/10/27 06:48:17;;;;;;;13.30;11.25;;;;;;;9.13;100.00;98893.91;5005882;28;20370;-65
2023/10/27 06:50:43;;;;;;;14.18;10.20;;;;;;;9.15;100.00;98895.63;5003285;28;20033;-65
2023/10/27 06:53:09;;;;;;;12.25;10.82;;;;;;;9.15;100.00;98904.25;5004937;28;20025;-65
2023/10/27 06:55:35;;;;;;;13.02;10.18;;;;;;;9.15;100.00;98893.94;5014204;28;20136;-66
2023/10/27 06:58:00;;;;;;;13.23;9.90;;;;;;;9.16;100.00;98897.34;5004359;28;20521;-66
2023/10/27 07:00:25;;;;;;;10.65;9.50;;;;;;;9.16;100.00;98905.09;4998841;28;20026;-66
2023/10/27 07:02:51;;;;;;;14.90;10.65;;;;;;;9.16;100.00;98903.41;5017941;28;20080;-66
2023/10/27 07:05:17;;;;;;;13.23;10.70;;;;;;;9.16;100.00;98905.97;5019563;28;20052;-66
2023/10/27 07:07:43;;;;;;;11.82;10.00;;;;;;;9.17;100.00;98901.69;5008207;28;20025;-65
2023/10/27 07:10:09;;;;;;;15.20;11.20;;;;;;;9.18;100.00;98911.16;5005961;28;20064;-66
2023/10/27 07:12:34;;;;;;;12.23;10.93;;;;;;;9.17;100.00;98909.44;5006949;28;20049;-66
2023/10/27 07:15:00;;;;;;;14.25;10.80;;;;;;;9.18;100.00;98919.78;5004806;28;20037;-65
2023/10/27 07:17:25;;;;;;;14.07;11.32;;;;;;;9.19;100.00;98916.34;4994463;28;20022;-66
2023/10/27 07:19:50;;;;;;;13.75;11.07;;;;;;;9.20;100.00;98922.38;5007202;28;20030;-66
2023/10/27 07:22:17;;;;;;;12.05;9.82;;;;;;;9.20;100.00;98914.63;5008900;28;20104;-66
2023/10/27 07:24:43;;;;;;;10.35;9.25;;;;;;;9.20;100.00;98922.38;5016475;28;20034;-64
2023/10/27 07:27:08;;;;;;;9.85;8.88;;;;;;;9.21;100.00;98926.72;5002731;28;20034;-65
2023/10/27 07:29:33;;;;;;;9.90;8.90;;;;;;;9.22;100.00;98931.00;4995926;28;20037;-66
2023/10/27 07:31:59;;;;;;;9.40;8.50;;;;;;;9.22;100.00;98933.59;5007462;28;20398;-65
2023/10/27 07:34:24;;;;;;;9.38;8.30;;;;;;;9.23;100.00;98937.91;5023966;28;20495;-66
2023/10/27 07:36:50;;;;;;;10.07;8.32;;;;;;;9.24;100.00;98926.72;5009315;28;20553;-66
2023/10/27 07:39:15;;;;;;;11.70;8.63;;;;;;;9.26;100.00;98932.78;5007251;28;20034;-66
2023/10/27 07:41:41;;;;;;;11.68;8.75;;;;;;;9.28;100.00;98936.25;5016181;28;20034;-66
2023/10/27 07:44:06;;;;;;;10.02;8.80;;;;;;;9.29;100.00;98932.78;5018132;28;20029;-65
2023/10/27 07:46:34;;;;;;;11.65;8.57;;;;;;;9.31;100.00;98941.41;5014260;28;20135;-66
2023/10/27 07:48:59;;;;;;;10.80;9.48;;;;;;;9.31;100.00;98941.41;5014080;28;20420;-66
2023/10/27 07:51:25;;;;;;;12.55;9.30;;;;;;;9.32;100.00;98943.13;5006729;28;20033;-65
2023/10/27 07:53:50;;;;;;;12.07;9.90;;;;;;;9.34;100.00;98945.72;5008547;28;20137;-66
2023/10/27 07:56:18;;;;;;;10.90;9.77;;;;;;;9.35;100.00;98947.47;5008505;28;20065;-66
2023/10/27 07:58:43;;;;;;;13.52;11.40;;;;;;;9.35;100.00;98943.16;5007149;28;20050;-66
2023/10/27 08:01:09;;;;;;;12.40;11.10;;;;;;;9.37;100.00;98943.19;5019253;28;20386;-66
2023/10/27 08:03:34;;;;;;;12.45;10.38;;;;;;;9.36;100.00;98941.44;5023716;28;20462;-65
2023/10/27 08:06:00;;;;;;;12.50;11.15;;;;;;;9.37;100.00;98951.78;5026258;28;20083;-66
2023/10/27 08:08:25;;;;;;;12.20;10.90;;;;;;;9.39;100.00;98961.28;4997684;28;20057;-66
2023/10/27 08:10:51;;;;;;;14.20;11.68;;;;;;;9.39;100.00;98956.13;5018537;28;20299;-66
2023/10/27 08:13:16;;;;;;;12.88;11.50;;;;;;;9.39;100.00;98956.13;5015149;28;20046;-66
2023/10/27 08:15:45;;;;;;;12.48;10.88;;;;;;;9.40;100.00;98957.84;5001857;28;20026;-65
2023/10/27 08:18:12;;;;;;;11.85;10.60;;;;;;;9.41;100.00;98967.34;4990546;28;20026;-66
2023/10/27 08:20:38;;;;;;;11.38;10.27;;;;;;;9.36;100.00;98959.53;4989414;28;20423;-67
2023/10/27 08:23:03;;;;;;;11.55;10.35;;;;;;;9.35;100.00;98950.91;5024998;28;20124;-67
2023/10/27 08:25:28;;;;;;;12.27;10.82;;;;;;;9.34;100.00;98954.34;5014066;28;20423;-66
2023/10/27 08:27:54;;;;;;;12.35;10.95;;;;;;;9.37;100.00;98956.09;5027503;28;20087;-66
2023/10/27 08:30:20;;;;;;;12.27;10.95;;;;;;;9.37;100.00;98956.09;5000896;28;20109;-66
2023/10/27 08:32:45;;;;;;;12.05;9.77;;;;;;;9.37;100.00;98967.28;5010640;28;20045;-66
2023/10/27 08:35:11;;;;;;;11.13;9.88;;;;;;;9.39;100.00;98971.63;5013788;28;20029;-65
2023/10/27 08:37:36;;;;;;;11.30;9.98;;;;;;;9.41;100.00;98975.94;5003148;28;20021;-66
2023/10/27 08:40:03;;;;;;;10.68;9.57;;;;;;;9.42;100.00;98984.56;5008039;28;20026;-66
2023/10/27 08:42:32;;;;;;;11.93;9.30;;;;;;;9.45;100.00;98987.16;5004675;28;20060;-65
2023/10/27 08:44:58;;;;;;;10.43;9.35;;;;;;;9.47;100.00;98985.47;5019751;28;20454;-66
2023/10/27 08:47:25;;;;;;;10.55;8.98;;;;;;;9.48;100.00;98984.59;5014748;28;20022;-66
2023/10/27 08:49:50;;;;;;;9.27;8.38;;;;;;;9.51;100.00;98989.81;5018509;28;20029;-65
2023/10/27 08:52:16;;;;;;;9.45;8.23;;;;;;;9.53;100.00;98982.94;5013856;28;20484;-66
2023/10/27 08:54:41;;;;;;;8.75;7.93;;;;;;;9.55;100.00;98986.38;5002683;28;20070;-66
2023/10/27 08:57:08;;;;;;;8.10;7.30;;;;;;;9.57;100.00;98986.41;5011899;28;20101;-65
2023/10/27 08:59:35;;;;;;;8.35;7.65;;;;;;;9.58;100.00;98994.16;5006998;28;20029;-66
2023/10/27 09:02:01;;;;;;;11.27;7.97;;;;;;;9.61;100.00;98991.59;5021448;28;20029;-66
2023/10/27 09:04:26;;;;;;;9.40;7.65;;;;;;;9.61;100.00;98981.25;5016586;28;20025;-66
2023/10/27 09:06:51;;;;;;;9.02;8.05;;;;;;;9.63;100.00;98982.97;5007270;28;20034;-66
2023/10/27 09:09:18;;;;;;;9.02;8.15;;;;;;;9.63;100.00;98993.31;4990711;28;20037;-66
2023/10/27 09:11:48;;;;;;;9.32;8.15;;;;;;;9.66;100.00;98993.34;5003121;28;20026;-66
2023/10/27 09:14:19;;;;;;;9.52;8.52;;;;;;;9.67;100.00;98995.94;5008312;28;20022;-66
2023/10/27 09:16:44;;;;;;;8.38;7.57;;;;;;;9.69;100.00;99001.13;5002371;28;20119;-64
2023/10/27 09:19:24;;;;;;;9.30;8.00;;;;;;;9.69;100.00;98998.53;5002010;28;20093;-66
2023/10/27 09:21:50;;;;;;;9.10;7.65;;;;;;;9.70;100.00;99000.25;5008940;28;20030;-66
2023/10/27 09:24:26;;;;;;;8.00;6.90;;;;;;;9.70;100.00;98995.09;5006828;28;20065;-66
2023/10/27 09:26:53;;;;;;;9.25;7.88;;;;;;;9.70;100.00;98990.78;5003376;28;20139;-66
2023/10/27 09:29:19;;;;;;;8.80;7.88;;;;;;;9.72;100.00;98994.25;5013258;28;20645;-66
2023/10/27 09:31:44;;;;;;;8.75;7.85;;;;;;;9.76;100.00;98995.13;4993097;28;20076;-66
2023/10/27 09:34:19;;;;;;;11.23;7.93;;;;;;;9.77;100.00;98996.00;5002701;28;20123;-66
2023/10/27 09:36:53;;;;;;;8.77;7.55;;;;;;;9.77;100.00;99004.59;5008508;28;20030;-66
2023/10/27 09:39:20;;;;;;;9.43;8.02;;;;;;;9.80;100.00;99008.94;5008729;28;20032;-66
2023/10/27 09:41:48;;;;;;;9.32;7.85;;;;;;;9.81;100.00;98998.59;5008482;28;20068;-65
2023/10/27 09:44:15;;;;;;;11.40;8.77;;;;;;;9.82;100.00;99000.31;5008207;28;20021;-66
2023/10/27 09:46:49;;;;;;;11.10;9.40;;;;;;;9.84;100.00;98998.63;5008811;28;20632;-66
2023/10/27 09:49:24;;;;;;;10.32;8.30;;;;;;;9.86;100.00;99001.22;5019358;28;20425;-65
2023/10/27 09:51:52;;;;;;;11.80;8.13;;;;;;;9.88;100.00;98998.63;5000868;28;20030;-65
2023/10/27 09:54:18;;;;;;;9.90;8.52;;;;;;;9.89;100.00;98995.19;5010452;28;20500;-66
2023/10/27 09:56:44;;;;;;;10.13;8.23;;;;;;;9.91;100.00;99002.09;5017647;28;20029;-65
2023/10/27 09:59:09;;;;;;;10.25;7.88;;;;;;;9.94;100.00;99002.13;5013350;28;20026;-66
2023/10/27 10:01:35;;;;;;;10.50;8.73;;;;;;;9.96;100.00;99002.13;5008715;28;20178;-66
2023/10/27 10:04:01;;;;;;;9.93;8.52;;;;;;;10.00;100.00;98993.50;5004532;28;20089;-66
2023/10/27 10:06:29;;;;;;;11.18;9.40;;;;;;;10.04;100.00;98995.28;5009839;28;20034;-66
2023/10/27 10:09:11;;;;;;;11.43;9.30;;;;;;;10.09;100.00;98998.75;5005217;28;20394;-66
2023/10/27 10:11:46;;;;;;;9.68;8.18;;;;;;;10.13;100.00;99003.94;5008245;28;20334;-66
2023/10/27 10:14:42;;;;;;;9.18;8.20;;;;;;;10.11;100.00;99005.66;5006036;28;20034;-66
2023/10/27 10:17:08;;;;;;;9.52;8.32;;;;;;;10.12;100.00;99012.56;5010130;28;20033;-65
2023/10/27 10:19:54;;;;;;;11.40;8.05;;;;;;;10.12;100.00;99028.97;5005866;28;20569;-66
2023/10/27 10:22:38;;;;;;;9.32;7.20;;;;;;;10.09;100.00;99024.63;5002916;28;20533;-66
2023/10/27 10:25:18;;;;;;;10.35;7.55;;;;;;;10.09;100.00;99040.16;5004920;28;20333;-66
2023/10/27 10:28:08;;;;;;;6.23;5.40;;;;;;;10.08;100.00;99028.06;5002776;28;20037;-65
2023/10/27 10:30:41;;;;;;;6.30;5.65;;;;;;;10.06;100.00;99022.03;5004767;28;20388;-66
2023/10/27 10:33:28;;;;;;;7.93;6.18;;;;;;;10.06;100.00;99027.19;5011714;28;20385;-66
2023/10/27 10:36:22;;;;;;;10.93;6.43;;;;;;;10.05;100.00;99028.06;5015917;28;20041;-66
2023/10/27 10:38:53;;;;;;;11.43;8.85;;;;;;;10.04;100.00;99031.50;5013092;28;20069;-65
2023/10/27 10:41:19;;;;;;;;;;;;;;;10.02;100.00;99028.03;5002573;28;20032;-66
2023/10/27 10:44:04;;;;;;;12.30;9.88;;;;;;;10.03;100.00;99028.91;5005044;28;20260;-66
2023/10/27 10:46:30;;;;;;;14.90;11.18;;;;;;;10.00;100.00;99027.16;5003202;28;20624;-66
2023/10/27 10:48:55;;;;;;;16.42;13.05;;;;;;;9.99;100.00;99028.03;5022326;28;20033;-66
2023/10/27 10:51:30;;;;;;;16.13;13.15;;;;;;;9.98;100.00;99015.94;5000507;28;20030;-66
2023/10/27 10:53:56;;;;;;;18.40;13.63;;;;;;;9.97;100.00;99024.56;5006400;28;20030;-66
2023/10/27 10:56:22;;;;;;;16.42;12.82;;;;;;;9.97;100.00;99019.38;5007349;28;20083;-66
2023/10/27 10:58:48;;;;;;;17.77;13.27;;;;;;;9.97;100.00;99020.25;5006561;28;20552;-66
2023/10/27 11:01:21;;;;;;;19.73;14.55;;;;;;;9.96;100.00;99017.66;5013965;28;20065;-66
2023/10/27 11:03:48;;;;;;;20.10;14.82;;;;;;;9.97;100.00;99021.97;5015624;28;20034;-66
2023/10/27 11:06:14;;;;;;;22.83;15.73;;;;;;;9.97;100.00;99016.78;4999586;28;20030;-66
2023/10/27 11:08:39;;;;;;;24.48;15.20;;;;;;;9.99;100.00;99020.25;5007829;28;20028;-66
2023/10/27 11:11:13;;;;;;;25.58;16.88;;;;;;;10.02;100.00;99012.50;5000516;28;20046;-66
2023/10/27 11:13:41;;;;;;;22.90;15.57;;;;;;;10.07;100.00;99007.38;5007137;28;20489;-66
2023/10/27 11:16:17;;;;;;;26.85;17.17;;;;;;;10.13;100.00;99009.97;4999399;28;20034;-66
2023/10/27 11:18:44;;;;;;;25.50;17.45;;;;;;;10.17;100.00;99010.84;5009094;28;20022;-66